sensor_id;sensor_type;location;lat;lon;timestamp;P1;durP1;ratioP1;P2;durP2;ratioP2
71395;SDS011;59888;55.814;37.132;2024-03-08T00:00:34;8.70;;;3.50;;
71395;SDS011;59888;55.814;37.132;2024-03-08T00:03:01;9.55;;;4.18;;
71395;SDS011;59888;55.814;37.132;2024-03-08T00:05:27;8.95;;;3.95;;
71395;SDS011;59888;55.814;37.132;2024-03-08T00:07:53;9.43;;;3.88;;
71395;SDS011;59888;55.814;37.132;2024-03-08T00:10:19;7.75;;;3.50;;
71395;SDS011;59888;55.814;37.132;2024-03-08T00:12:46;10.02;;;3.63;;
71395;SDS011;59888;55.814;37.132;2024-03-08T00:15:16;8.77;;;3.90;;
71395;SDS011;59888;55.814;37.132;2024-03-08T00:17:43;9.52;;;4.13;;
71395;SDS011;59888;55.814;37.132;2024-03-08T00:20:09;8.52;;;4.03;;
71395;SDS011;59888;55.814;37.132;2024-03-08T00:22:36;6.78;;;3.60;;
71395;SDS011;59888;55.814;37.132;2024-03-08T00:25:02;7.85;;;4.00;;
71395;SDS011;59888;55.814;37.132;2024-03-08T00:27:30;11.32;;;4.47;;
71395;SDS011;59888;55.814;37.132;2024-03-08T00:29:59;7.57;;;3.50;;
71395;SDS011;59888;55.814;37.132;2024-03-08T00:32:26;9.95;;;3.70;;
71395;SDS011;59888;55.814;37.132;2024-03-08T00:34:55;5.68;;;3.20;;
71395;SDS011;59888;55.814;37.132;2024-03-08T00:37:21;7.53;;;3.85;;
71395;SDS011;59888;55.814;37.132;2024-03-08T00:39:52;8.90;;;4.05;;
71395;SDS011;59888;55.814;37.132;2024-03-08T00:42:20;9.18;;;4.50;;
71395;SDS011;59888;55.814;37.132;2024-03-08T00:44:46;8.05;;;3.97;;
71395;SDS011;59888;55.814;37.132;2024-03-08T00:47:14;8.07;;;4.15;;
71395;SDS011;59888;55.814;37.132;2024-03-08T00:49:41;9.63;;;4.57;;
71395;SDS011;59888;55.814;37.132;2024-03-08T00:52:07;9.02;;;3.97;;
71395;SDS011;59888;55.814;37.132;2024-03-08T00:54:34;9.93;;;3.58;;
71395;SDS011;59888;55.814;37.132;2024-03-08T00:57:02;10.95;;;4.43;;
71395;SDS011;59888;55.814;37.132;2024-03-08T00:59:28;6.22;;;3.47;;
71395;SDS011;59888;55.814;37.132;2024-03-08T01:01:55;8.00;;;3.78;;
71395;SDS011;59888;55.814;37.132;2024-03-08T01:04:20;8.60;;;3.70;;
71395;SDS011;59888;55.814;37.132;2024-03-08T01:06:48;8.63;;;4.05;;
71395;SDS011;59888;55.814;37.132;2024-03-08T01:09:14;7.53;;;3.35;;
71395;SDS011;59888;55.814;37.132;2024-03-08T01:11:42;8.50;;;3.58;;
71395;SDS011;59888;55.814;37.132;2024-03-08T01:14:09;7.18;;;3.78;;
71395;SDS011;59888;55.814;37.132;2024-03-08T01:16:37;7.82;;;3.67;;
71395;SDS011;59888;55.814;37.132;2024-03-08T01:19:03;12.00;;;3.88;;
71395;SDS011;59888;55.814;37.132;2024-03-08T01:21:29;7.53;;;3.72;;
71395;SDS011;59888;55.814;37.132;2024-03-08T01:23:55;6.97;;;3.55;;
71395;SDS011;59888;55.814;37.132;2024-03-08T01:26:20;6.50;;;3.42;;
71395;SDS011;59888;55.814;37.132;2024-03-08T01:28:49;6.22;;;3.22;;
71395;SDS011;59888;55.814;37.132;2024-03-08T01:31:15;6.43;;;3.10;;
71395;SDS011;59888;55.814;37.132;2024-03-08T01:33:41;6.47;;;3.30;;
71395;SDS011;59888;55.814;37.132;2024-03-08T01:36:07;7.50;;;3.35;;
71395;SDS011;59888;55.814;37.132;2024-03-08T01:38:34;6.97;;;3.35;;
71395;SDS011;59888;55.814;37.132;2024-03-08T01:41:07;7.70;;;3.65;;
71395;SDS011;59888;55.814;37.132;2024-03-08T01:43:35;5.55;;;3.08;;
71395;SDS011;59888;55.814;37.132;2024-03-08T01:46:04;8.10;;;3.40;;
71395;SDS011;59888;55.814;37.132;2024-03-08T01:48:33;7.55;;;3.38;;
71395;SDS011;59888;55.814;37.132;2024-03-08T01:51:01;6.55;;;3.35;;
71395;SDS011;59888;55.814;37.132;2024-03-08T01:53:27;5.65;;;3.20;;
71395;SDS011;59888;55.814;37.132;2024-03-08T01:55:56;6.43;;;3.20;;
71395;SDS011;59888;55.814;37.132;2024-03-08T01:58:25;8.02;;;3.40;;
71395;SDS011;59888;55.814;37.132;2024-03-08T02:00:53;6.55;;;3.08;;
71395;SDS011;59888;55.814;37.132;2024-03-08T02:03:20;6.97;;;3.15;;
71395;SDS011;59888;55.814;37.132;2024-03-08T02:05:47;6.10;;;3.03;;
71395;SDS011;59888;55.814;37.132;2024-03-08T02:08:14;6.95;;;3.30;;
71395;SDS011;59888;55.814;37.132;2024-03-08T02:10:41;7.45;;;3.15;;
71395;SDS011;59888;55.814;37.132;2024-03-08T02:13:09;6.03;;;3.13;;
71395;SDS011;59888;55.814;37.132;2024-03-08T02:15:52;7.95;;;3.45;;
71395;SDS011;59888;55.814;37.132;2024-03-08T02:18:38;6.13;;;3.13;;
71395;SDS011;59888;55.814;37.132;2024-03-08T02:21:05;8.52;;;3.58;;
71395;SDS011;59888;55.814;37.132;2024-03-08T02:23:31;9.18;;;3.80;;
71395;SDS011;59888;55.814;37.132;2024-03-08T02:25:58;8.15;;;3.40;;
71395;SDS011;59888;55.814;37.132;2024-03-08T02:28:24;6.85;;;2.95;;
71395;SDS011;59888;55.814;37.132;2024-03-08T02:30:50;7.40;;;3.28;;
71395;SDS011;59888;55.814;37.132;2024-03-08T02:33:17;8.50;;;3.22;;
71395;SDS011;59888;55.814;37.132;2024-03-08T02:35:47;8.13;;;3.40;;
71395;SDS011;59888;55.814;37.132;2024-03-08T02:38:13;6.10;;;3.10;;
71395;SDS011;59888;55.814;37.132;2024-03-08T02:40:48;6.50;;;3.50;;
71395;SDS011;59888;55.814;37.132;2024-03-08T02:43:15;8.82;;;3.83;;
71395;SDS011;59888;55.814;37.132;2024-03-08T02:45:41;8.38;;;3.70;;
71395;SDS011;59888;55.814;37.132;2024-03-08T02:48:11;8.07;;;3.60;;
71395;SDS011;59888;55.814;37.132;2024-03-08T02:50:37;7.40;;;3.70;;
71395;SDS011;59888;55.814;37.132;2024-03-08T02:53:06;9.25;;;3.67;;
71395;SDS011;59888;55.814;37.132;2024-03-08T02:55:32;9.07;;;3.83;;
71395;SDS011;59888;55.814;37.132;2024-03-08T02:58:01;8.88;;;3.60;;
71395;SDS011;59888;55.814;37.132;2024-03-08T03:00:28;6.25;;;2.97;;
71395;SDS011;59888;55.814;37.132;2024-03-08T03:02:57;7.60;;;3.83;;
71395;SDS011;59888;55.814;37.132;2024-03-08T03:05:23;8.35;;;3.40;;
71395;SDS011;59888;55.814;37.132;2024-03-08T03:07:50;8.55;;;3.33;;
71395;SDS011;59888;55.814;37.132;2024-03-08T03:10:16;7.65;;;3.40;;
71395;SDS011;59888;55.814;37.132;2024-03-08T03:12:43;5.88;;;3.33;;
71395;SDS011;59888;55.814;37.132;2024-03-08T03:15:10;9.10;;;3.72;;
71395;SDS011;59888;55.814;37.132;2024-03-08T03:17:47;6.95;;;3.65;;
71395;SDS011;59888;55.814;37.132;2024-03-08T03:20:13;5.60;;;3.10;;
71395;SDS011;59888;55.814;37.132;2024-03-08T03:22:39;6.95;;;3.22;;
71395;SDS011;59888;55.814;37.132;2024-03-08T03:25:07;6.75;;;3.08;;
71395;SDS011;59888;55.814;37.132;2024-03-08T03:27:33;6.68;;;3.20;;
71395;SDS011;59888;55.814;37.132;2024-03-08T03:29:59;7.13;;;3.35;;
71395;SDS011;59888;55.814;37.132;2024-03-08T03:32:45;6.97;;;3.50;;
71395;SDS011;59888;55.814;37.132;2024-03-08T03:35:13;5.45;;;2.90;;
71395;SDS011;59888;55.814;37.132;2024-03-08T03:37:40;8.60;;;3.33;;
71395;SDS011;59888;55.814;37.132;2024-03-08T03:40:08;7.00;;;3.90;;
71395;SDS011;59888;55.814;37.132;2024-03-08T03:42:34;6.00;;;3.15;;
71395;SDS011;59888;55.814;37.132;2024-03-08T03:45:00;7.68;;;3.47;;
71395;SDS011;59888;55.814;37.132;2024-03-08T03:47:29;7.07;;;3.47;;
71395;SDS011;59888;55.814;37.132;2024-03-08T03:49:55;8.73;;;3.80;;
71395;SDS011;59888;55.814;37.132;2024-03-08T03:52:21;6.50;;;3.63;;
71395;SDS011;59888;55.814;37.132;2024-03-08T03:54:47;7.55;;;3.13;;
71395;SDS011;59888;55.814;37.132;2024-03-08T03:57:13;5.47;;;3.00;;
71395;SDS011;59888;55.814;37.132;2024-03-08T03:59:39;7.40;;;3.17;;
71395;SDS011;59888;55.814;37.132;2024-03-08T04:02:06;6.45;;;2.92;;
71395;SDS011;59888;55.814;37.132;2024-03-08T04:04:32;5.63;;;2.70;;
71395;SDS011;59888;55.814;37.132;2024-03-08T04:06:57;5.15;;;2.70;;
71395;SDS011;59888;55.814;37.132;2024-03-08T04:09:24;4.85;;;3.08;;
71395;SDS011;59888;55.814;37.132;2024-03-08T04:11:50;6.22;;;3.30;;
71395;SDS011;59888;55.814;37.132;2024-03-08T04:14:18;6.93;;;2.92;;
71395;SDS011;59888;55.814;37.132;2024-03-08T04:16:44;6.53;;;3.42;;
71395;SDS011;59888;55.814;37.132;2024-03-08T04:19:10;5.93;;;3.30;;
71395;SDS011;59888;55.814;37.132;2024-03-08T04:21:35;7.00;;;3.20;;
71395;SDS011;59888;55.814;37.132;2024-03-08T04:24:01;7.55;;;3.88;;
71395;SDS011;59888;55.814;37.132;2024-03-08T04:26:27;5.25;;;2.83;;
71395;SDS011;59888;55.814;37.132;2024-03-08T04:28:53;7.78;;;3.40;;
71395;SDS011;59888;55.814;37.132;2024-03-08T04:31:19;6.10;;;3.35;;
71395;SDS011;59888;55.814;37.132;2024-03-08T04:33:45;7.47;;;3.58;;
71395;SDS011;59888;55.814;37.132;2024-03-08T04:36:10;7.53;;;4.03;;
71395;SDS011;59888;55.814;37.132;2024-03-08T04:38:39;8.48;;;4.05;;
71395;SDS011;59888;55.814;37.132;2024-03-08T04:41:06;7.20;;;3.65;;
71395;SDS011;59888;55.814;37.132;2024-03-08T04:43:32;6.85;;;3.88;;
71395;SDS011;59888;55.814;37.132;2024-03-08T04:45:59;9.30;;;4.50;;
71395;SDS011;59888;55.814;37.132;2024-03-08T04:48:24;7.43;;;4.30;;
71395;SDS011;59888;55.814;37.132;2024-03-08T04:50:52;7.72;;;4.30;;
71395;SDS011;59888;55.814;37.132;2024-03-08T04:53:19;9.68;;;4.72;;
71395;SDS011;59888;55.814;37.132;2024-03-08T04:55:45;11.07;;;4.65;;
71395;SDS011;59888;55.814;37.132;2024-03-08T04:58:11;10.05;;;4.40;;
71395;SDS011;59888;55.814;37.132;2024-03-08T05:00:37;10.27;;;5.00;;
71395;SDS011;59888;55.814;37.132;2024-03-08T05:03:03;10.27;;;4.60;;
71395;SDS011;59888;55.814;37.132;2024-03-08T05:05:30;10.55;;;5.15;;
71395;SDS011;59888;55.814;37.132;2024-03-08T05:07:56;11.60;;;5.45;;
71395;SDS011;59888;55.814;37.132;2024-03-08T05:10:22;11.02;;;5.68;;
71395;SDS011;59888;55.814;37.132;2024-03-08T05:12:48;10.05;;;5.30;;
71395;SDS011;59888;55.814;37.132;2024-03-08T05:15:14;10.55;;;6.00;;
71395;SDS011;59888;55.814;37.132;2024-03-08T05:17:40;12.05;;;5.78;;
71395;SDS011;59888;55.814;37.132;2024-03-08T05:20:06;10.95;;;5.25;;
71395;SDS011;59888;55.814;37.132;2024-03-08T05:22:33;12.13;;;5.28;;
71395;SDS011;59888;55.814;37.132;2024-03-08T05:25:02;11.73;;;5.97;;
71395;SDS011;59888;55.814;37.132;2024-03-08T05:27:29;12.98;;;5.38;;
71395;SDS011;59888;55.814;37.132;2024-03-08T05:29:55;15.27;;;5.85;;
71395;SDS011;59888;55.814;37.132;2024-03-08T05:32:20;14.25;;;6.40;;
71395;SDS011;59888;55.814;37.132;2024-03-08T05:34:46;13.73;;;5.90;;
71395;SDS011;59888;55.814;37.132;2024-03-08T05:37:12;13.90;;;6.30;;
71395;SDS011;59888;55.814;37.132;2024-03-08T05:39:38;14.05;;;5.72;;
71395;SDS011;59888;55.814;37.132;2024-03-08T05:42:04;11.95;;;6.18;;
71395;SDS011;59888;55.814;37.132;2024-03-08T05:44:30;13.30;;;5.82;;
71395;SDS011;59888;55.814;37.132;2024-03-08T05:46:56;15.27;;;5.95;;
71395;SDS011;59888;55.814;37.132;2024-03-08T05:49:22;11.57;;;5.78;;
71395;SDS011;59888;55.814;37.132;2024-03-08T05:51:48;11.77;;;5.63;;
71395;SDS011;59888;55.814;37.132;2024-03-08T05:54:14;12.13;;;5.78;;
71395;SDS011;59888;55.814;37.132;2024-03-08T05:56:40;13.02;;;6.10;;
71395;SDS011;59888;55.814;37.132;2024-03-08T05:59:10;10.73;;;5.53;;
71395;SDS011;59888;55.814;37.132;2024-03-08T06:01:39;11.57;;;5.82;;
71395;SDS011;59888;55.814;37.132;2024-03-08T06:04:06;12.20;;;5.28;;
71395;SDS011;59888;55.814;37.132;2024-03-08T06:06:32;12.60;;;6.25;;
71395;SDS011;59888;55.814;37.132;2024-03-08T06:08:58;13.32;;;6.30;;
71395;SDS011;59888;55.814;37.132;2024-03-08T06:11:25;11.90;;;6.07;;
71395;SDS011;59888;55.814;37.132;2024-03-08T06:13:54;12.70;;;5.95;;
71395;SDS011;59888;55.814;37.132;2024-03-08T06:16:26;10.63;;;5.40;;
71395;SDS011;59888;55.814;37.132;2024-03-08T06:18:58;9.52;;;5.00;;
71395;SDS011;59888;55.814;37.132;2024-03-08T06:21:24;11.38;;;5.32;;
71395;SDS011;59888;55.814;37.132;2024-03-08T06:23:55;10.70;;;5.50;;
71395;SDS011;59888;55.814;37.132;2024-03-08T06:26:21;11.85;;;5.28;;
71395;SDS011;59888;55.814;37.132;2024-03-08T06:28:47;10.38;;;5.35;;
71395;SDS011;59888;55.814;37.132;2024-03-08T06:31:13;12.43;;;5.20;;
71395;SDS011;59888;55.814;37.132;2024-03-08T06:33:40;12.15;;;4.68;;
71395;SDS011;59888;55.814;37.132;2024-03-08T06:36:06;10.60;;;4.97;;
71395;SDS011;59888;55.814;37.132;2024-03-08T06:38:32;9.40;;;4.80;;
71395;SDS011;59888;55.814;37.132;2024-03-08T06:40:58;10.07;;;4.78;;
71395;SDS011;59888;55.814;37.132;2024-03-08T06:43:24;13.55;;;5.53;;
71395;SDS011;59888;55.814;37.132;2024-03-08T06:45:58;10.40;;;4.93;;
71395;SDS011;59888;55.814;37.132;2024-03-08T06:48:24;11.80;;;4.60;;
71395;SDS011;59888;55.814;37.132;2024-03-08T06:50:49;11.85;;;4.97;;
71395;SDS011;59888;55.814;37.132;2024-03-08T06:53:16;12.32;;;4.47;;
71395;SDS011;59888;55.814;37.132;2024-03-08T06:55:45;9.60;;;5.00;;
71395;SDS011;59888;55.814;37.132;2024-03-08T06:58:10;11.88;;;4.97;;
71395;SDS011;59888;55.814;37.132;2024-03-08T07:00:36;9.00;;;4.55;;
71395;SDS011;59888;55.814;37.132;2024-03-08T07:03:02;7.75;;;4.07;;
71395;SDS011;59888;55.814;37.132;2024-03-08T07:05:29;8.77;;;4.53;;
71395;SDS011;59888;55.814;37.132;2024-03-08T07:07:55;8.98;;;3.92;;
71395;SDS011;59888;55.814;37.132;2024-03-08T07:10:24;8.52;;;4.60;;
71395;SDS011;59888;55.814;37.132;2024-03-08T07:12:50;7.63;;;3.97;;
71395;SDS011;59888;55.814;37.132;2024-03-08T07:15:16;11.80;;;4.57;;
71395;SDS011;59888;55.814;37.132;2024-03-08T07:17:46;8.60;;;4.30;;
71395;SDS011;59888;55.814;37.132;2024-03-08T07:20:13;8.73;;;4.15;;
71395;SDS011;59888;55.814;37.132;2024-03-08T07:22:39;9.15;;;3.67;;
71395;SDS011;59888;55.814;37.132;2024-03-08T07:25:05;8.82;;;4.25;;
71395;SDS011;59888;55.814;37.132;2024-03-08T07:27:48;8.88;;;3.97;;
71395;SDS011;59888;55.814;37.132;2024-03-08T07:30:15;10.07;;;4.15;;
71395;SDS011;59888;55.814;37.132;2024-03-08T07:32:59;8.85;;;3.63;;
71395;SDS011;59888;55.814;37.132;2024-03-08T07:35:28;6.75;;;3.53;;
71395;SDS011;59888;55.814;37.132;2024-03-08T07:37:54;8.07;;;3.70;;
71395;SDS011;59888;55.814;37.132;2024-03-08T07:40:21;7.28;;;3.80;;
71395;SDS011;59888;55.814;37.132;2024-03-08T07:42:47;8.07;;;3.88;;
71395;SDS011;59888;55.814;37.132;2024-03-08T07:45:13;8.38;;;3.95;;
71395;SDS011;59888;55.814;37.132;2024-03-08T07:47:39;6.60;;;3.60;;
71395;SDS011;59888;55.814;37.132;2024-03-08T07:50:06;7.82;;;4.15;;
71395;SDS011;59888;55.814;37.132;2024-03-08T07:52:36;8.00;;;3.47;;
71395;SDS011;59888;55.814;37.132;2024-03-08T07:55:02;8.65;;;4.13;;
71395;SDS011;59888;55.814;37.132;2024-03-08T07:57:29;7.43;;;3.95;;
71395;SDS011;59888;55.814;37.132;2024-03-08T07:59:55;8.02;;;3.83;;
71395;SDS011;59888;55.814;37.132;2024-03-08T08:02:21;8.32;;;3.90;;
71395;SDS011;59888;55.814;37.132;2024-03-08T08:04:47;8.05;;;3.80;;
71395;SDS011;59888;55.814;37.132;2024-03-08T08:07:13;7.72;;;3.97;;
71395;SDS011;59888;55.814;37.132;2024-03-08T08:09:40;9.73;;;4.35;;
71395;SDS011;59888;55.814;37.132;2024-03-08T08:12:08;9.57;;;4.05;;
71395;SDS011;59888;55.814;37.132;2024-03-08T08:14:37;9.43;;;3.80;;
71395;SDS011;59888;55.814;37.132;2024-03-08T08:17:07;7.25;;;3.90;;
71395;SDS011;59888;55.814;37.132;2024-03-08T08:19:34;10.48;;;4.03;;
71395;SDS011;59888;55.814;37.132;2024-03-08T08:22:01;8.38;;;4.30;;
71395;SDS011;59888;55.814;37.132;2024-03-08T08:24:27;6.95;;;3.60;;
71395;SDS011;59888;55.814;37.132;2024-03-08T08:26:53;9.05;;;4.10;;
71395;SDS011;59888;55.814;37.132;2024-03-08T08:29:19;10.25;;;4.28;;
71395;SDS011;59888;55.814;37.132;2024-03-08T08:31:46;8.40;;;4.03;;
71395;SDS011;59888;55.814;37.132;2024-03-08T08:34:12;10.60;;;3.78;;
71395;SDS011;59888;55.814;37.132;2024-03-08T08:36:39;8.77;;;4.10;;
71395;SDS011;59888;55.814;37.132;2024-03-08T08:39:05;9.45;;;4.18;;
71395;SDS011;59888;55.814;37.132;2024-03-08T08:41:38;7.93;;;3.78;;
71395;SDS011;59888;55.814;37.132;2024-03-08T08:44:03;7.70;;;4.07;;
71395;SDS011;59888;55.814;37.132;2024-03-08T08:46:29;8.18;;;4.25;;
71395;SDS011;59888;55.814;37.132;2024-03-08T08:49:03;7.85;;;3.78;;
71395;SDS011;59888;55.814;37.132;2024-03-08T08:51:29;7.85;;;4.13;;
71395;SDS011;59888;55.814;37.132;2024-03-08T08:53:54;8.70;;;3.80;;
71395;SDS011;59888;55.814;37.132;2024-03-08T08:56:24;8.63;;;3.90;;
71395;SDS011;59888;55.814;37.132;2024-03-08T08:58:51;8.07;;;3.80;;
71395;SDS011;59888;55.814;37.132;2024-03-08T09:01:19;7.78;;;3.70;;
71395;SDS011;59888;55.814;37.132;2024-03-08T09:03:45;9.77;;;4.38;;
71395;SDS011;59888;55.814;37.132;2024-03-08T09:06:15;7.10;;;3.88;;
71395;SDS011;59888;55.814;37.132;2024-03-08T09:08:42;7.03;;;4.13;;
71395;SDS011;59888;55.814;37.132;2024-03-08T09:11:08;6.78;;;3.72;;
71395;SDS011;59888;55.814;37.132;2024-03-08T09:13:34;7.93;;;4.05;;
71395;SDS011;59888;55.814;37.132;2024-03-08T09:16:00;8.07;;;4.50;;
71395;SDS011;59888;55.814;37.132;2024-03-08T09:18:26;10.57;;;3.92;;
71395;SDS011;59888;55.814;37.132;2024-03-08T09:20:51;7.63;;;4.22;;
71395;SDS011;59888;55.814;37.132;2024-03-08T09:23:19;9.13;;;4.20;;
71395;SDS011;59888;55.814;37.132;2024-03-08T09:25:45;8.43;;;4.15;;
71395;SDS011;59888;55.814;37.132;2024-03-08T09:28:12;8.73;;;4.63;;
71395;SDS011;59888;55.814;37.132;2024-03-08T09:30:38;9.30;;;3.85;;
71395;SDS011;59888;55.814;37.132;2024-03-08T09:33:07;7.95;;;3.95;;
71395;SDS011;59888;55.814;37.132;2024-03-08T09:35:33;8.15;;;4.13;;
71395;SDS011;59888;55.814;37.132;2024-03-08T09:37:58;7.82;;;3.85;;
71395;SDS011;59888;55.814;37.132;2024-03-08T09:40:24;6.80;;;3.88;;
71395;SDS011;59888;55.814;37.132;2024-03-08T09:42:51;7.88;;;4.07;;
71395;SDS011;59888;55.814;37.132;2024-03-08T09:45:19;8.45;;;4.57;;
71395;SDS011;59888;55.814;37.132;2024-03-08T09:47:48;9.27;;;4.28;;
71395;SDS011;59888;55.814;37.132;2024-03-08T09:50:17;7.68;;;4.20;;
71395;SDS011;59888;55.814;37.132;2024-03-08T09:52:46;6.85;;;3.70;;
71395;SDS011;59888;55.814;37.132;2024-03-08T09:55:12;7.75;;;4.00;;
71395;SDS011;59888;55.814;37.132;2024-03-08T09:57:39;8.18;;;3.72;;
71395;SDS011;59888;55.814;37.132;2024-03-08T10:00:05;7.43;;;4.00;;
71395;SDS011;59888;55.814;37.132;2024-03-08T10:02:45;7.22;;;3.88;;
71395;SDS011;59888;55.814;37.132;2024-03-08T10:05:12;7.57;;;3.85;;
71395;SDS011;59888;55.814;37.132;2024-03-08T10:07:38;7.05;;;3.83;;
71395;SDS011;59888;55.814;37.132;2024-03-08T10:10:04;8.30;;;4.15;;
71395;SDS011;59888;55.814;37.132;2024-03-08T10:12:30;7.75;;;3.85;;
71395;SDS011;59888;55.814;37.132;2024-03-08T10:14:58;8.60;;;3.58;;
71395;SDS011;59888;55.814;37.132;2024-03-08T10:17:24;7.20;;;3.60;;
71395;SDS011;59888;55.814;37.132;2024-03-08T10:19:50;8.55;;;4.60;;
71395;SDS011;59888;55.814;37.132;2024-03-08T10:22:19;8.73;;;4.10;;
71395;SDS011;59888;55.814;37.132;2024-03-08T10:24:47;7.65;;;4.07;;
71395;SDS011;59888;55.814;37.132;2024-03-08T10:27:15;7.18;;;3.80;;
71395;SDS011;59888;55.814;37.132;2024-03-08T10:29:41;6.38;;;3.55;;
71395;SDS011;59888;55.814;37.132;2024-03-08T10:32:10;7.97;;;3.50;;
71395;SDS011;59888;55.814;37.132;2024-03-08T10:34:37;8.52;;;4.00;;
71395;SDS011;59888;55.814;37.132;2024-03-08T10:37:03;7.45;;;3.95;;
71395;SDS011;59888;55.814;37.132;2024-03-08T10:39:34;8.65;;;4.80;;
71395;SDS011;59888;55.814;37.132;2024-03-08T10:42:02;7.50;;;3.90;;
71395;SDS011;59888;55.814;37.132;2024-03-08T10:49:28;9.38;;;4.63;;
71395;SDS011;59888;55.814;37.132;2024-03-08T10:51:56;13.98;;;6.45;;
71395;SDS011;59888;55.814;37.132;2024-03-08T10:54:22;6.35;;;3.60;;
71395;SDS011;59888;55.814;37.132;2024-03-08T10:56:49;6.32;;;3.60;;
71395;SDS011;59888;55.814;37.132;2024-03-08T10:59:17;7.80;;;3.80;;
71395;SDS011;59888;55.814;37.132;2024-03-08T11:01:44;8.10;;;4.00;;
71395;SDS011;59888;55.814;37.132;2024-03-08T11:04:10;8.38;;;4.65;;
71395;SDS011;59888;55.814;37.132;2024-03-08T11:09:06;6.78;;;3.53;;
71395;SDS011;59888;55.814;37.132;2024-03-08T11:11:38;8.75;;;3.88;;
71395;SDS011;59888;55.814;37.132;2024-03-08T11:14:13;8.32;;;3.53;;
71395;SDS011;59888;55.814;37.132;2024-03-08T11:16:57;9.85;;;4.60;;
71395;SDS011;59888;55.814;37.132;2024-03-08T11:19:23;9.27;;;4.18;;
71395;SDS011;59888;55.814;37.132;2024-03-08T11:21:59;7.82;;;3.83;;
71395;SDS011;59888;55.814;37.132;2024-03-08T11:24:26;7.50;;;3.85;;
71395;SDS011;59888;55.814;37.132;2024-03-08T11:26:58;7.03;;;3.65;;
71395;SDS011;59888;55.814;37.132;2024-03-08T11:31:51;7.55;;;3.47;;
71395;SDS011;59888;55.814;37.132;2024-03-08T11:34:17;7.50;;;3.65;;
71395;SDS011;59888;55.814;37.132;2024-03-08T11:36:44;7.32;;;3.40;;
71395;SDS011;59888;55.814;37.132;2024-03-08T11:39:16;8.23;;;3.53;;
71395;SDS011;59888;55.814;37.132;2024-03-08T11:41:42;7.47;;;3.17;;
71395;SDS011;59888;55.814;37.132;2024-03-08T11:44:10;5.78;;;3.22;;
71395;SDS011;59888;55.814;37.132;2024-03-08T11:46:42;8.20;;;3.67;;
71395;SDS011;59888;55.814;37.132;2024-03-08T11:49:12;6.55;;;3.20;;
71395;SDS011;59888;55.814;37.132;2024-03-08T11:51:41;9.02;;;3.45;;
71395;SDS011;59888;55.814;37.132;2024-03-08T11:54:11;5.65;;;3.33;;
71395;SDS011;59888;55.814;37.132;2024-03-08T11:56:38;5.93;;;2.78;;
71395;SDS011;59888;55.814;37.132;2024-03-08T11:59:04;5.57;;;3.25;;
71395;SDS011;59888;55.814;37.132;2024-03-08T12:01:31;7.15;;;3.13;;
71395;SDS011;59888;55.814;37.132;2024-03-08T12:03:57;5.35;;;3.03;;
71395;SDS011;59888;55.814;37.132;2024-03-08T12:06:25;7.65;;;3.22;;
71395;SDS011;59888;55.814;37.132;2024-03-08T12:08:51;6.85;;;3.03;;
71395;SDS011;59888;55.814;37.132;2024-03-08T12:11:19;5.78;;;3.40;;
71395;SDS011;59888;55.814;37.132;2024-03-08T12:13:49;5.28;;;2.90;;
71395;SDS011;59888;55.814;37.132;2024-03-08T12:16:19;6.85;;;3.45;;
71395;SDS011;59888;55.814;37.132;2024-03-08T12:18:47;6.00;;;3.13;;
71395;SDS011;59888;55.814;37.132;2024-03-08T12:21:13;6.55;;;3.22;;
71395;SDS011;59888;55.814;37.132;2024-03-08T12:23:44;6.35;;;3.53;;
71395;SDS011;59888;55.814;37.132;2024-03-08T12:28:39;8.43;;;3.50;;
71395;SDS011;59888;55.814;37.132;2024-03-08T12:31:08;6.50;;;3.05;;
71395;SDS011;59888;55.814;37.132;2024-03-08T12:33:37;5.47;;;3.25;;
71395;SDS011;59888;55.814;37.132;2024-03-08T12:36:04;7.00;;;3.30;;
71395;SDS011;59888;55.814;37.132;2024-03-08T12:38:34;6.18;;;3.50;;
71395;SDS011;59888;55.814;37.132;2024-03-08T12:41:03;5.60;;;3.00;;
71395;SDS011;59888;55.814;37.132;2024-03-08T12:43:30;5.55;;;2.83;;
71395;SDS011;59888;55.814;37.132;2024-03-08T12:45:56;5.70;;;2.67;;
71395;SDS011;59888;55.814;37.132;2024-03-08T12:48:22;6.53;;;2.72;;
71395;SDS011;59888;55.814;37.132;2024-03-08T12:50:48;6.38;;;3.20;;
71395;SDS011;59888;55.814;37.132;2024-03-08T12:53:17;7.65;;;3.50;;
71395;SDS011;59888;55.814;37.132;2024-03-08T12:55:43;7.03;;;2.92;;
71395;SDS011;59888;55.814;37.132;2024-03-08T12:58:09;6.25;;;3.30;;
71395;SDS011;59888;55.814;37.132;2024-03-08T13:00:35;6.25;;;2.80;;
71395;SDS011;59888;55.814;37.132;2024-03-08T13:03:08;5.90;;;3.00;;
71395;SDS011;59888;55.814;37.132;2024-03-08T13:05:37;5.68;;;2.80;;
71395;SDS011;59888;55.814;37.132;2024-03-08T13:08:07;5.57;;;2.78;;
71395;SDS011;59888;55.814;37.132;2024-03-08T13:10:39;5.22;;;2.58;;
71395;SDS011;59888;55.814;37.132;2024-03-08T13:13:05;4.95;;;2.40;;
71395;SDS011;59888;55.814;37.132;2024-03-08T13:15:30;7.80;;;2.70;;
71395;SDS011;59888;55.814;37.132;2024-03-08T13:17:58;4.85;;;2.40;;
71395;SDS011;59888;55.814;37.132;2024-03-08T13:20:25;4.70;;;2.95;;
71395;SDS011;59888;55.814;37.132;2024-03-08T13:22:54;5.43;;;2.55;;
71395;SDS011;59888;55.814;37.132;2024-03-08T13:25:21;4.93;;;2.50;;
71395;SDS011;59888;55.814;37.132;2024-03-08T13:27:47;5.75;;;2.67;;
71395;SDS011;59888;55.814;37.132;2024-03-08T13:30:14;6.70;;;3.00;;
71395;SDS011;59888;55.814;37.132;2024-03-08T13:32:45;4.40;;;2.50;;
71395;SDS011;59888;55.814;37.132;2024-03-08T13:35:12;4.85;;;2.67;;
71395;SDS011;59888;55.814;37.132;2024-03-08T13:37:41;5.25;;;2.90;;
71395;SDS011;59888;55.814;37.132;2024-03-08T13:40:08;4.88;;;2.60;;
71395;SDS011;59888;55.814;37.132;2024-03-08T13:42:40;5.85;;;3.08;;
71395;SDS011;59888;55.814;37.132;2024-03-08T13:45:10;4.00;;;2.70;;
71395;SDS011;59888;55.814;37.132;2024-03-08T13:47:43;5.55;;;2.58;;
71395;SDS011;59888;55.814;37.132;2024-03-08T13:50:10;6.10;;;2.53;;
71395;SDS011;59888;55.814;37.132;2024-03-08T13:52:41;5.13;;;2.38;;
71395;SDS011;59888;55.814;37.132;2024-03-08T13:55:09;5.50;;;2.83;;
71395;SDS011;59888;55.814;37.132;2024-03-08T13:57:35;7.38;;;2.80;;
71395;SDS011;59888;55.814;37.132;2024-03-08T14:00:01;4.07;;;2.20;;
71395;SDS011;59888;55.814;37.132;2024-03-08T14:02:30;4.93;;;2.40;;
71395;SDS011;59888;55.814;37.132;2024-03-08T14:04:57;5.53;;;2.92;;
71395;SDS011;59888;55.814;37.132;2024-03-08T14:07:23;8.05;;;3.17;;
71395;SDS011;59888;55.814;37.132;2024-03-08T14:09:49;6.40;;;2.67;;
71395;SDS011;59888;55.814;37.132;2024-03-08T14:12:16;6.00;;;3.05;;
71395;SDS011;59888;55.814;37.132;2024-03-08T14:14:42;4.88;;;2.50;;
71395;SDS011;59888;55.814;37.132;2024-03-08T14:17:10;5.32;;;2.80;;
71395;SDS011;59888;55.814;37.132;2024-03-08T14:19:37;5.85;;;3.00;;
71395;SDS011;59888;55.814;37.132;2024-03-08T14:22:04;8.48;;;3.22;;
71395;SDS011;59888;55.814;37.132;2024-03-08T14:24:31;6.85;;;3.97;;
71395;SDS011;59888;55.814;37.132;2024-03-08T14:26:57;5.13;;;2.70;;
71395;SDS011;59888;55.814;37.132;2024-03-08T14:29:25;8.07;;;3.30;;
71395;SDS011;59888;55.814;37.132;2024-03-08T14:31:55;5.05;;;2.88;;
71395;SDS011;59888;55.814;37.132;2024-03-08T14:34:27;7.00;;;3.30;;
71395;SDS011;59888;55.814;37.132;2024-03-08T14:36:55;9.50;;;3.20;;
71395;SDS011;59888;55.814;37.132;2024-03-08T14:39:21;6.68;;;3.15;;
71395;SDS011;59888;55.814;37.132;2024-03-08T14:41:52;7.35;;;3.22;;
71395;SDS011;59888;55.814;37.132;2024-03-08T14:44:24;6.75;;;3.63;;
71395;SDS011;59888;55.814;37.132;2024-03-08T14:46:52;6.88;;;3.08;;